sensor_id;sensor_type;location;lat;lon;timestamp;P1;durP1;ratioP1;P2;durP2;ratioP2
21507;SDS011;10915;54.352;9.074;2024-02-16T00:02:17;58.03;;;35.27;;
21507;SDS011;10915;54.352;9.074;2024-02-16T00:04:43;54.47;;;34.90;;
21507;SDS011;10915;54.352;9.074;2024-02-16T00:07:09;58.63;;;34.43;;
21507;SDS011;10915;54.352;9.074;2024-02-16T00:09:34;55.03;;;33.20;;
21507;SDS011;10915;54.352;9.074;2024-02-16T00:12:00;51.30;;;32.07;;
21507;SDS011;10915;54.352;9.074;2024-02-16T00:14:26;46.50;;;31.13;;
21507;SDS011;10915;54.352;9.074;2024-02-16T00:16:52;50.60;;;32.33;;
21507;SDS011;10915;54.352;9.074;2024-02-16T00:19:17;51.63;;;32.10;;
21507;SDS011;10915;54.352;9.074;2024-02-16T00:21:43;48.20;;;32.13;;
21507;SDS011;10915;54.352;9.074;2024-02-16T00:24:09;43.90;;;30.30;;
21507;SDS011;10915;54.352;9.074;2024-02-16T00:26:35;45.13;;;29.90;;
21507;SDS011;10915;54.352;9.074;2024-02-16T00:29:01;39.10;;;27.57;;
21507;SDS011;10915;54.352;9.074;2024-02-16T00:31:26;42.93;;;29.83;;
21507;SDS011;10915;54.352;9.074;2024-02-16T00:33:52;38.47;;;27.17;;
21507;SDS011;10915;54.352;9.074;2024-02-16T00:36:17;42.63;;;27.17;;
21507;SDS011;10915;54.352;9.074;2024-02-16T00:38:43;37.20;;;26.50;;
21507;SDS011;10915;54.352;9.074;2024-02-16T00:41:16;37.87;;;25.93;;
21507;SDS011;10915;54.352;9.074;2024-02-16T00:43:45;39.17;;;26.53;;
21507;SDS011;10915;54.352;9.074;2024-02-16T00:46:11;39.17;;;27.43;;
21507;SDS011;10915;54.352;9.074;2024-02-16T00:48:36;38.40;;;24.77;;
21507;SDS011;10915;54.352;9.074;2024-02-16T00:51:02;37.07;;;25.27;;
21507;SDS011;10915;54.352;9.074;2024-02-16T00:53:28;34.10;;;24.97;;
21507;SDS011;10915;54.352;9.074;2024-02-16T00:55:54;33.97;;;24.13;;
21507;SDS011;10915;54.352;9.074;2024-02-16T00:58:19;33.27;;;24.40;;
21507;SDS011;10915;54.352;9.074;2024-02-16T01:00:45;32.00;;;22.63;;
21507;SDS011;10915;54.352;9.074;2024-02-16T01:03:11;29.77;;;23.70;;
21507;SDS011;10915;54.352;9.074;2024-02-16T01:05:38;30.53;;;22.30;;
21507;SDS011;10915;54.352;9.074;2024-02-16T01:08:05;29.67;;;21.67;;
21507;SDS011;10915;54.352;9.074;2024-02-16T01:10:31;28.03;;;20.93;;
21507;SDS011;10915;54.352;9.074;2024-02-16T01:12:56;28.90;;;21.10;;
21507;SDS011;10915;54.352;9.074;2024-02-16T01:15:22;29.20;;;20.77;;
21507;SDS011;10915;54.352;9.074;2024-02-16T01:17:48;30.17;;;21.57;;
21507;SDS011;10915;54.352;9.074;2024-02-16T01:20:13;27.87;;;21.63;;
21507;SDS011;10915;54.352;9.074;2024-02-16T01:22:39;31.03;;;20.83;;
21507;SDS011;10915;54.352;9.074;2024-02-16T01:25:05;29.07;;;20.83;;
21507;SDS011;10915;54.352;9.074;2024-02-16T01:27:32;26.80;;;20.73;;
21507;SDS011;10915;54.352;9.074;2024-02-16T01:29:58;29.07;;;20.80;;
21507;SDS011;10915;54.352;9.074;2024-02-16T01:32:23;26.97;;;19.97;;
21507;SDS011;10915;54.352;9.074;2024-02-16T01:34:49;27.53;;;19.80;;
21507;SDS011;10915;54.352;9.074;2024-02-16T01:37:15;28.33;;;20.17;;
21507;SDS011;10915;54.352;9.074;2024-02-16T01:39:40;27.67;;;19.63;;
21507;SDS011;10915;54.352;9.074;2024-02-16T01:42:07;27.10;;;18.97;;
21507;SDS011;10915;54.352;9.074;2024-02-16T01:44:32;25.03;;;18.57;;
21507;SDS011;10915;54.352;9.074;2024-02-16T01:46:58;23.67;;;16.70;;
21507;SDS011;10915;54.352;9.074;2024-02-16T01:49:24;23.77;;;17.17;;
21507;SDS011;10915;54.352;9.074;2024-02-16T01:51:49;24.00;;;16.63;;
21507;SDS011;10915;54.352;9.074;2024-02-16T01:54:15;23.83;;;16.57;;
21507;SDS011;10915;54.352;9.074;2024-02-16T01:56:43;23.17;;;16.70;;
21507;SDS011;10915;54.352;9.074;2024-02-16T01:59:09;23.13;;;17.50;;
21507;SDS011;10915;54.352;9.074;2024-02-16T02:01:35;25.13;;;16.70;;
21507;SDS011;10915;54.352;9.074;2024-02-16T02:04:01;24.17;;;16.77;;
21507;SDS011;10915;54.352;9.074;2024-02-16T02:06:27;22.07;;;15.17;;
21507;SDS011;10915;54.352;9.074;2024-02-16T02:08:53;21.50;;;15.60;;
21507;SDS011;10915;54.352;9.074;2024-02-16T02:11:18;20.13;;;14.63;;
21507;SDS011;10915;54.352;9.074;2024-02-16T02:13:44;20.40;;;15.07;;
21507;SDS011;10915;54.352;9.074;2024-02-16T02:16:10;23.13;;;15.07;;
21507;SDS011;10915;54.352;9.074;2024-02-16T02:18:36;20.60;;;14.03;;
21507;SDS011;10915;54.352;9.074;2024-02-16T02:21:02;19.00;;;14.63;;
21507;SDS011;10915;54.352;9.074;2024-02-16T02:23:27;25.27;;;15.10;;
21507;SDS011;10915;54.352;9.074;2024-02-16T02:25:53;19.83;;;14.07;;
21507;SDS011;10915;54.352;9.074;2024-02-16T02:28:19;17.47;;;13.73;;
21507;SDS011;10915;54.352;9.074;2024-02-16T02:30:45;18.57;;;14.80;;
21507;SDS011;10915;54.352;9.074;2024-02-16T02:33:12;20.80;;;14.87;;
21507;SDS011;10915;54.352;9.074;2024-02-16T02:35:38;18.07;;;13.40;;
21507;SDS011;10915;54.352;9.074;2024-02-16T02:38:04;21.93;;;14.00;;
21507;SDS011;10915;54.352;9.074;2024-02-16T02:40:32;17.30;;;13.43;;
21507;SDS011;10915;54.352;9.074;2024-02-16T02:42:57;21.97;;;14.27;;
21507;SDS011;10915;54.352;9.074;2024-02-16T02:45:23;19.77;;;13.73;;
21507;SDS011;10915;54.352;9.074;2024-02-16T02:47:49;20.60;;;13.33;;
21507;SDS011;10915;54.352;9.074;2024-02-16T02:50:16;20.83;;;14.73;;
21507;SDS011;10915;54.352;9.074;2024-02-16T02:52:41;20.80;;;13.60;;
21507;SDS011;10915;54.352;9.074;2024-02-16T02:55:10;19.90;;;14.40;;
21507;SDS011;10915;54.352;9.074;2024-02-16T02:57:36;21.63;;;15.10;;
21507;SDS011;10915;54.352;9.074;2024-02-16T03:00:03;19.70;;;13.33;;
21507;SDS011;10915;54.352;9.074;2024-02-16T03:02:35;20.37;;;14.10;;
21507;SDS011;10915;54.352;9.074;2024-02-16T03:05:02;16.37;;;13.00;;
21507;SDS011;10915;54.352;9.074;2024-02-16T03:07:29;19.47;;;13.50;;
21507;SDS011;10915;54.352;9.074;2024-02-16T03:09:54;17.37;;;12.43;;
21507;SDS011;10915;54.352;9.074;2024-02-16T03:12:20;17.80;;;13.30;;
21507;SDS011;10915;54.352;9.074;2024-02-16T03:14:45;18.53;;;12.80;;
21507;SDS011;10915;54.352;9.074;2024-02-16T03:17:11;19.47;;;13.03;;
21507;SDS011;10915;54.352;9.074;2024-02-16T03:19:36;15.50;;;11.73;;
21507;SDS011;10915;54.352;9.074;2024-02-16T03:22:02;16.53;;;12.30;;
21507;SDS011;10915;54.352;9.074;2024-02-16T03:24:28;20.23;;;12.90;;
21507;SDS011;10915;54.352;9.074;2024-02-16T03:26:53;17.00;;;12.87;;
21507;SDS011;10915;54.352;9.074;2024-02-16T03:29:19;19.10;;;13.13;;
21507;SDS011;10915;54.352;9.074;2024-02-16T03:31:45;18.40;;;13.33;;
21507;SDS011;10915;54.352;9.074;2024-02-16T03:34:10;14.90;;;12.40;;
21507;SDS011;10915;54.352;9.074;2024-02-16T03:36:36;16.10;;;12.53;;
21507;SDS011;10915;54.352;9.074;2024-02-16T03:39:01;20.93;;;12.17;;
21507;SDS011;10915;54.352;9.074;2024-02-16T03:41:27;18.63;;;12.30;;
21507;SDS011;10915;54.352;9.074;2024-02-16T03:43:53;18.70;;;11.87;;
21507;SDS011;10915;54.352;9.074;2024-02-16T03:46:19;16.80;;;11.87;;
21507;SDS011;10915;54.352;9.074;2024-02-16T03:48:45;16.90;;;11.03;;
21507;SDS011;10915;54.352;9.074;2024-02-16T03:51:11;17.80;;;11.80;;
21507;SDS011;10915;54.352;9.074;2024-02-16T03:53:37;16.20;;;11.37;;
21507;SDS011;10915;54.352;9.074;2024-02-16T03:56:04;17.43;;;11.33;;
21507;SDS011;10915;54.352;9.074;2024-02-16T03:58:30;14.03;;;11.07;;
21507;SDS011;10915;54.352;9.074;2024-02-16T04:00:56;17.60;;;11.97;;
21507;SDS011;10915;54.352;9.074;2024-02-16T04:03:23;16.70;;;10.97;;
21507;SDS011;10915;54.352;9.074;2024-02-16T04:05:48;16.93;;;10.37;;
21507;SDS011;10915;54.352;9.074;2024-02-16T04:08:14;16.47;;;10.83;;
21507;SDS011;10915;54.352;9.074;2024-02-16T04:10:40;15.80;;;10.43;;
21507;SDS011;10915;54.352;9.074;2024-02-16T04:13:05;16.33;;;10.33;;
21507;SDS011;10915;54.352;9.074;2024-02-16T04:15:31;14.33;;;9.87;;
21507;SDS011;10915;54.352;9.074;2024-02-16T04:17:57;16.07;;;10.07;;
21507;SDS011;10915;54.352;9.074;2024-02-16T04:20:22;14.57;;;9.70;;
21507;SDS011;10915;54.352;9.074;2024-02-16T04:22:48;14.67;;;10.00;;
21507;SDS011;10915;54.352;9.074;2024-02-16T04:25:13;13.57;;;9.20;;
21507;SDS011;10915;54.352;9.074;2024-02-16T04:27:39;13.57;;;9.13;;
21507;SDS011;10915;54.352;9.074;2024-02-16T04:30:05;16.27;;;9.80;;
21507;SDS011;10915;54.352;9.074;2024-02-16T04:32:31;14.30;;;9.43;;
21507;SDS011;10915;54.352;9.074;2024-02-16T04:34:58;16.27;;;9.03;;
21507;SDS011;10915;54.352;9.074;2024-02-16T04:37:23;13.13;;;9.30;;
21507;SDS011;10915;54.352;9.074;2024-02-16T04:39:52;10.83;;;8.43;;
21507;SDS011;10915;54.352;9.074;2024-02-16T04:42:18;14.87;;;8.63;;
21507;SDS011;10915;54.352;9.074;2024-02-16T04:44:43;12.43;;;8.03;;
21507;SDS011;10915;54.352;9.074;2024-02-16T04:47:09;13.77;;;8.27;;
21507;SDS011;10915;54.352;9.074;2024-02-16T04:49:35;13.00;;;7.70;;
21507;SDS011;10915;54.352;9.074;2024-02-16T04:52:02;14.77;;;8.03;;
21507;SDS011;10915;54.352;9.074;2024-02-16T04:54:28;11.60;;;7.30;;
21507;SDS011;10915;54.352;9.074;2024-02-16T04:56:53;14.13;;;8.57;;
21507;SDS011;10915;54.352;9.074;2024-02-16T04:59:19;15.30;;;7.93;;
21507;SDS011;10915;54.352;9.074;2024-02-16T05:01:45;13.10;;;8.20;;
21507;SDS011;10915;54.352;9.074;2024-02-16T05:04:11;10.77;;;7.43;;
21507;SDS011;10915;54.352;9.074;2024-02-16T05:06:44;14.43;;;7.37;;
21507;SDS011;10915;54.352;9.074;2024-02-16T05:09:12;15.50;;;7.93;;
21507;SDS011;10915;54.352;9.074;2024-02-16T05:11:42;12.60;;;7.57;;
21507;SDS011;10915;54.352;9.074;2024-02-16T05:14:11;11.10;;;7.90;;
21507;SDS011;10915;54.352;9.074;2024-02-16T05:16:45;11.67;;;7.13;;
21507;SDS011;10915;54.352;9.074;2024-02-16T05:19:12;9.43;;;6.73;;
21507;SDS011;10915;54.352;9.074;2024-02-16T05:21:38;12.80;;;7.53;;
21507;SDS011;10915;54.352;9.074;2024-02-16T05:24:03;12.90;;;7.30;;
21507;SDS011;10915;54.352;9.074;2024-02-16T05:26:30;11.93;;;7.00;;
21507;SDS011;10915;54.352;9.074;2024-02-16T05:28:55;11.43;;;6.60;;
21507;SDS011;10915;54.352;9.074;2024-02-16T05:31:21;9.03;;;6.07;;
21507;SDS011;10915;54.352;9.074;2024-02-16T05:33:50;10.30;;;6.47;;
21507;SDS011;10915;54.352;9.074;2024-02-16T05:36:22;10.70;;;7.03;;
21507;SDS011;10915;54.352;9.074;2024-02-16T05:38:55;14.20;;;6.57;;
21507;SDS011;10915;54.352;9.074;2024-02-16T05:41:21;8.90;;;6.50;;
21507;SDS011;10915;54.352;9.074;2024-02-16T05:43:47;9.50;;;6.40;;
21507;SDS011;10915;54.352;9.074;2024-02-16T05:46:17;10.63;;;7.23;;
21507;SDS011;10915;54.352;9.074;2024-02-16T05:48:43;10.73;;;6.67;;
21507;SDS011;10915;54.352;9.074;2024-02-16T05:51:10;8.63;;;6.33;;
21507;SDS011;10915;54.352;9.074;2024-02-16T05:53:38;9.97;;;6.77;;
21507;SDS011;10915;54.352;9.074;2024-02-16T05:56:04;14.10;;;6.93;;
21507;SDS011;10915;54.352;9.074;2024-02-16T05:58:30;11.57;;;6.70;;
21507;SDS011;10915;54.352;9.074;2024-02-16T06:00:56;10.80;;;6.43;;
21507;SDS011;10915;54.352;9.074;2024-02-16T06:03:22;10.00;;;6.30;;
21507;SDS011;10915;54.352;9.074;2024-02-16T06:05:48;10.67;;;6.90;;
21507;SDS011;10915;54.352;9.074;2024-02-16T06:08:14;13.40;;;7.00;;
21507;SDS011;10915;54.352;9.074;2024-02-16T06:10:43;11.73;;;6.83;;
21507;SDS011;10915;54.352;9.074;2024-02-16T06:13:15;12.10;;;6.77;;
21507;SDS011;10915;54.352;9.074;2024-02-16T06:15:41;10.87;;;6.60;;
21507;SDS011;10915;54.352;9.074;2024-02-16T06:18:08;11.80;;;6.87;;
21507;SDS011;10915;54.352;9.074;2024-02-16T06:20:34;11.60;;;6.47;;
21507;SDS011;10915;54.352;9.074;2024-02-16T06:23:00;13.40;;;6.53;;
21507;SDS011;10915;54.352;9.074;2024-02-16T06:25:26;9.53;;;6.73;;
21507;SDS011;10915;54.352;9.074;2024-02-16T06:27:52;11.63;;;6.33;;
21507;SDS011;10915;54.352;9.074;2024-02-16T06:30:18;8.87;;;5.87;;
21507;SDS011;10915;54.352;9.074;2024-02-16T06:32:43;9.57;;;6.20;;
21507;SDS011;10915;54.352;9.074;2024-02-16T06:35:09;10.57;;;6.97;;
21507;SDS011;10915;54.352;9.074;2024-02-16T06:37:36;11.20;;;5.90;;
21507;SDS011;10915;54.352;9.074;2024-02-16T06:40:05;9.13;;;6.27;;
21507;SDS011;10915;54.352;9.074;2024-02-16T06:42:34;11.83;;;6.57;;
21507;SDS011;10915;54.352;9.074;2024-02-16T06:45:00;11.67;;;6.43;;
21507;SDS011;10915;54.352;9.074;2024-02-16T06:47:25;9.87;;;6.87;;
21507;SDS011;10915;54.352;9.074;2024-02-16T06:49:51;10.20;;;6.63;;
21507;SDS011;10915;54.352;9.074;2024-02-16T06:52:17;9.90;;;7.00;;
21507;SDS011;10915;54.352;9.074;2024-02-16T06:54:43;10.00;;;6.30;;
21507;SDS011;10915;54.352;9.074;2024-02-16T06:57:09;10.43;;;6.37;;
21507;SDS011;10915;54.352;9.074;2024-02-16T06:59:34;9.37;;;6.23;;
21507;SDS011;10915;54.352;9.074;2024-02-16T07:02:00;10.60;;;6.73;;
21507;SDS011;10915;54.352;9.074;2024-02-16T07:04:25;14.00;;;6.80;;
21507;SDS011;10915;54.352;9.074;2024-02-16T07:06:51;9.97;;;6.17;;
21507;SDS011;10915;54.352;9.074;2024-02-16T07:09:17;10.87;;;6.60;;
21507;SDS011;10915;54.352;9.074;2024-02-16T07:11:42;12.60;;;6.87;;
21507;SDS011;10915;54.352;9.074;2024-02-16T07:14:11;9.07;;;6.00;;
21507;SDS011;10915;54.352;9.074;2024-02-16T07:16:37;11.73;;;5.90;;
21507;SDS011;10915;54.352;9.074;2024-02-16T07:19:03;11.13;;;5.83;;
21507;SDS011;10915;54.352;9.074;2024-02-16T07:21:30;12.00;;;6.53;;
21507;SDS011;10915;54.352;9.074;2024-02-16T07:23:55;8.73;;;5.83;;
21507;SDS011;10915;54.352;9.074;2024-02-16T07:26:21;12.77;;;5.87;;
21507;SDS011;10915;54.352;9.074;2024-02-16T07:28:47;9.37;;;5.80;;
21507;SDS011;10915;54.352;9.074;2024-02-16T07:31:12;8.63;;;5.23;;
21507;SDS011;10915;54.352;9.074;2024-02-16T07:33:39;7.60;;;5.37;;
21507;SDS011;10915;54.352;9.074;2024-02-16T07:36:05;12.67;;;5.20;;
21507;SDS011;10915;54.352;9.074;2024-02-16T07:38:31;9.57;;;5.43;;
21507;SDS011;10915;54.352;9.074;2024-02-16T07:40:57;9.20;;;5.60;;
21507;SDS011;10915;54.352;9.074;2024-02-16T07:43:22;8.70;;;5.20;;
21507;SDS011;10915;54.352;9.074;2024-02-16T07:45:51;9.03;;;5.47;;
21507;SDS011;10915;54.352;9.074;2024-02-16T07:48:19;11.97;;;6.13;;
21507;SDS011;10915;54.352;9.074;2024-02-16T07:50:46;12.93;;;5.87;;
21507;SDS011;10915;54.352;9.074;2024-02-16T07:53:12;8.33;;;5.27;;
21507;SDS011;10915;54.352;9.074;2024-02-16T07:55:38;10.53;;;5.33;;
21507;SDS011;10915;54.352;9.074;2024-02-16T07:58:03;11.60;;;5.23;;
21507;SDS011;10915;54.352;9.074;2024-02-16T08:00:29;9.50;;;5.10;;
21507;SDS011;10915;54.352;9.074;2024-02-16T08:02:55;9.30;;;4.87;;
21507;SDS011;10915;54.352;9.074;2024-02-16T08:05:20;10.77;;;5.10;;
21507;SDS011;10915;54.352;9.074;2024-02-16T08:07:47;7.37;;;4.83;;
21507;SDS011;10915;54.352;9.074;2024-02-16T08:10:13;8.77;;;4.90;;
21507;SDS011;10915;54.352;9.074;2024-02-16T08:12:38;7.43;;;4.43;;
21507;SDS011;10915;54.352;9.074;2024-02-16T08:15:05;7.57;;;4.50;;
21507;SDS011;10915;54.352;9.074;2024-02-16T08:17:35;11.53;;;4.60;;
21507;SDS011;10915;54.352;9.074;2024-02-16T08:20:02;9.20;;;4.40;;
21507;SDS011;10915;54.352;9.074;2024-02-16T08:22:28;8.60;;;4.27;;
21507;SDS011;10915;54.352;9.074;2024-02-16T08:24:54;9.63;;;4.63;;
21507;SDS011;10915;54.352;9.074;2024-02-16T08:27:19;6.90;;;4.20;;
21507;SDS011;10915;54.352;9.074;2024-02-16T08:29:45;6.20;;;4.37;;
21507;SDS011;10915;54.352;9.074;2024-02-16T08:32:11;8.23;;;4.70;;
21507;SDS011;10915;54.352;9.074;2024-02-16T08:34:37;10.97;;;4.70;;
21507;SDS011;10915;54.352;9.074;2024-02-16T08:37:03;9.10;;;4.47;;
21507;SDS011;10915;54.352;9.074;2024-02-16T08:39:30;9.77;;;4.13;;
21507;SDS011;10915;54.352;9.074;2024-02-16T08:41:56;9.60;;;4.37;;
21507;SDS011;10915;54.352;9.074;2024-02-16T08:44:23;8.83;;;5.00;;
21507;SDS011;10915;54.352;9.074;2024-02-16T08:46:49;7.83;;;4.40;;
21507;SDS011;10915;54.352;9.074;2024-02-16T08:49:15;9.37;;;4.20;;
21507;SDS011;10915;54.352;9.074;2024-02-16T08:51:41;7.37;;;4.27;;
21507;SDS011;10915;54.352;9.074;2024-02-16T08:54:07;10.77;;;5.73;;
21507;SDS011;10915;54.352;9.074;2024-02-16T08:56:33;8.07;;;3.93;;
21507;SDS011;10915;54.352;9.074;2024-02-16T08:59:00;6.73;;;3.90;;
21507;SDS011;10915;54.352;9.074;2024-02-16T09:01:30;7.53;;;3.80;;
21507;SDS011;10915;54.352;9.074;2024-02-16T09:03:56;10.93;;;4.13;;
21507;SDS011;10915;54.352;9.074;2024-02-16T09:06:22;10.10;;;3.90;;
21507;SDS011;10915;54.352;9.074;2024-02-16T09:08:47;6.90;;;4.13;;
21507;SDS011;10915;54.352;9.074;2024-02-16T09:11:13;8.07;;;3.90;;
21507;SDS011;10915;54.352;9.074;2024-02-16T09:13:39;10.37;;;3.63;;
21507;SDS011;10915;54.352;9.074;2024-02-16T09:16:06;10.87;;;3.73;;
21507;SDS011;10915;54.352;9.074;2024-02-16T09:18:32;7.37;;;3.27;;
21507;SDS011;10915;54.352;9.074;2024-02-16T09:20:58;10.30;;;3.40;;
21507;SDS011;10915;54.352;9.074;2024-02-16T09:23:24;7.80;;;3.10;;
21507;SDS011;10915;54.352;9.074;2024-02-16T09:25:50;10.13;;;3.30;;
21507;SDS011;10915;54.352;9.074;2024-02-16T09:28:16;9.63;;;3.27;;
21507;SDS011;10915;54.352;9.074;2024-02-16T09:30:44;6.00;;;3.43;;
21507;SDS011;10915;54.352;9.074;2024-02-16T09:33:09;5.57;;;2.80;;
21507;SDS011;10915;54.352;9.074;2024-02-16T09:35:35;5.77;;;3.00;;
21507;SDS011;10915;54.352;9.074;2024-02-16T09:38:01;4.77;;;3.03;;
21507;SDS011;10915;54.352;9.074;2024-02-16T09:40:27;4.77;;;2.90;;
21507;SDS011;10915;54.352;9.074;2024-02-16T09:42:53;7.37;;;3.33;;
21507;SDS011;10915;54.352;9.074;2024-02-16T09:45:19;9.30;;;3.93;;
21507;SDS011;10915;54.352;9.074;2024-02-16T09:47:45;6.83;;;3.23;;
21507;SDS011;10915;54.352;9.074;2024-02-16T09:50:14;7.67;;;3.60;;
21507;SDS011;10915;54.352;9.074;2024-02-16T09:52:40;9.40;;;3.60;;
21507;SDS011;10915;54.352;9.074;2024-02-16T09:55:11;5.77;;;3.13;;
21507;SDS011;10915;54.352;9.074;2024-02-16T09:57:38;6.30;;;3.37;;
21507;SDS011;10915;54.352;9.074;2024-02-16T10:00:04;7.53;;;2.93;;
21507;SDS011;10915;54.352;9.074;2024-02-16T10:02:40;9.17;;;3.83;;
21507;SDS011;10915;54.352;9.074;2024-02-16T10:05:13;7.73;;;3.60;;
21507;SDS011;10915;54.352;9.074;2024-02-16T10:07:43;7.30;;;3.50;;
21507;SDS011;10915;54.352;9.074;2024-02-16T10:13:01;8.13;;;3.20;;
21507;SDS011;10915;54.352;9.074;2024-02-16T10:15:27;5.63;;;3.37;;
21507;SDS011;10915;54.352;9.074;2024-02-16T10:17:59;7.70;;;3.40;;
21507;SDS011;10915;54.352;9.074;2024-02-16T10:20:29;7.07;;;3.67;;
21507;SDS011;10915;54.352;9.074;2024-02-16T10:23:05;5.90;;;3.70;;
21507;SDS011;10915;54.352;9.074;2024-02-16T10:25:31;7.30;;;3.60;;
21507;SDS011;10915;54.352;9.074;2024-02-16T10:27:57;6.63;;;3.57;;
21507;SDS011;10915;54.352;9.074;2024-02-16T10:30:23;9.20;;;3.40;;
21507;SDS011;10915;54.352;9.074;2024-02-16T10:32:54;7.23;;;3.73;;
21507;SDS011;10915;54.352;9.074;2024-02-16T10:35:20;5.70;;;3.50;;
21507;SDS011;10915;54.352;9.074;2024-02-16T10:37:49;6.10;;;3.10;;
21507;SDS011;10915;54.352;9.074;2024-02-16T10:40:15;6.63;;;3.67;;
21507;SDS011;10915;54.352;9.074;2024-02-16T10:42:45;7.40;;;3.80;;
21507;SDS011;10915;54.352;9.074;2024-02-16T10:45:11;6.20;;;3.33;;
21507;SDS011;10915;54.352;9.074;2024-02-16T10:47:41;5.97;;;3.73;;
21507;SDS011;10915;54.352;9.074;2024-02-16T10:50:07;7.77;;;3.80;;
21507;SDS011;10915;54.352;9.074;2024-02-16T10:52:34;10.07;;;6.30;;
21507;SDS011;10915;54.352;9.074;2024-02-16T10:55:04;7.80;;;3.97;;
21507;SDS011;10915;54.352;9.074;2024-02-16T10:57:30;8.53;;;4.40;;
21507;SDS011;10915;54.352;9.074;2024-02-16T10:59:58;8.70;;;4.40;;
21507;SDS011;10915;54.352;9.074;2024-02-16T11:02:24;6.23;;;3.33;;
21507;SDS011;10915;54.352;9.074;2024-02-16T11:04:51;6.70;;;4.07;;
21507;SDS011;10915;54.352;9.074;2024-02-16T11:07:18;5.27;;;3.67;;
21507;SDS011;10915;54.352;9.074;2024-02-16T11:09:45;8.33;;;4.03;;
21507;SDS011;10915;54.352;9.074;2024-02-16T11:12:12;7.10;;;3.80;;
21507;SDS011;10915;54.352;9.074;2024-02-16T11:14:46;6.33;;;3.80;;
21507;SDS011;10915;54.352;9.074;2024-02-16T11:17:20;10.83;;;4.30;;
21507;SDS011;10915;54.352;9.074;2024-02-16T11:19:47;8.20;;;4.00;;
21507;SDS011;10915;54.352;9.074;2024-02-16T11:22:17;5.97;;;3.60;;
21507;SDS011;10915;54.352;9.074;2024-02-16T11:24:44;10.57;;;3.87;;
21507;SDS011;10915;54.352;9.074;2024-02-16T11:27:12;7.20;;;3.80;;
21507;SDS011;10915;54.352;9.074;2024-02-16T11:29:40;6.27;;;3.77;;
21507;SDS011;10915;54.352;9.074;2024-02-16T11:32:06;6.30;;;4.10;;
21507;SDS011;10915;54.352;9.074;2024-02-16T11:34:33;10.97;;;4.77;;
21507;SDS011;10915;54.352;9.074;2024-02-16T11:37:01;10.13;;;4.40;;
21507;SDS011;10915;54.352;9.074;2024-02-16T11:39:27;7.63;;;4.00;;
21507;SDS011;10915;54.352;9.074;2024-02-16T11:44:37;6.97;;;4.40;;
21507;SDS011;10915;54.352;9.074;2024-02-16T11:47:07;10.03;;;4.47;;
21507;SDS011;10915;54.352;9.074;2024-02-16T11:49:42;8.03;;;4.77;;
21507;SDS011;10915;54.352;9.074;2024-02-16T11:52:08;10.50;;;4.37;;
21507;SDS011;10915;54.352;9.074;2024-02-16T11:54:34;9.33;;;5.53;;
21507;SDS011;10915;54.352;9.074;2024-02-16T11:57:01;7.60;;;4.77;;
21507;SDS011;10915;54.352;9.074;2024-02-16T11:59:28;7.67;;;4.50;;
21507;SDS011;10915;54.352;9.074;2024-02-16T12:01:56;10.80;;;4.97;;
21507;SDS011;10915;54.352;9.074;2024-02-16T12:04:29;10.23;;;5.20;;
21507;SDS011;10915;54.352;9.074;2024-02-16T12:07:04;7.63;;;4.73;;
21507;SDS011;10915;54.352;9.074;2024-02-16T12:09:30;6.30;;;4.73;;
21507;SDS011;10915;54.352;9.074;2024-02-16T12:11:59;10.93;;;4.90;;
21507;SDS011;10915;54.352;9.074;2024-02-16T12:14:25;7.87;;;4.97;;
21507;SDS011;10915;54.352;9.074;2024-02-16T12:16:51;11.67;;;5.50;;
21507;SDS011;10915;54.352;9.074;2024-02-16T12:19:20;10.00;;;5.83;;
21507;SDS011;10915;54.352;9.074;2024-02-16T12:21:53;8.60;;;4.70;;
21507;SDS011;10915;54.352;9.074;2024-02-16T12:24:22;7.73;;;4.60;;
21507;SDS011;10915;54.352;9.074;2024-02-16T12:26:48;9.17;;;5.07;;
21507;SDS011;10915;54.352;9.074;2024-02-16T12:29:15;9.83;;;5.17;;
21507;SDS011;10915;54.352;9.074;2024-02-16T12:31:41;12.60;;;5.13;;
21507;SDS011;10915;54.352;9.074;2024-02-16T12:34:08;9.93;;;5.43;;
21507;SDS011;10915;54.352;9.074;2024-02-16T12:36:34;8.83;;;4.90;;
21507;SDS011;10915;54.352;9.074;2024-02-16T12:39:00;11.57;;;5.53;;
21507;SDS011;10915;54.352;9.074;2024-02-16T12:41:28;9.90;;;5.93;;
21507;SDS011;10915;54.352;9.074;2024-02-16T12:43:54;11.80;;;5.97;;
21507;SDS011;10915;54.352;9.074;2024-02-16T12:46:20;9.80;;;5.77;;
21507;SDS011;10915;54.352;9.074;2024-02-16T12:48:46;10.47;;;5.47;;
21507;SDS011;10915;54.352;9.074;2024-02-16T12:51:11;10.40;;;6.03;;
21507;SDS011;10915;54.352;9.074;2024-02-16T12:53:37;11.33;;;5.87;;
21507;SDS011;10915;54.352;9.074;2024-02-16T12:56:08;11.20;;;6.10;;
21507;SDS011;10915;54.352;9.074;2024-02-16T12:58:35;9.20;;;5.50;;
21507;SDS011;10915;54.352;9.074;2024-02-16T13:01:01;11.93;;;6.00;;
21507;SDS011;10915;54.352;9.074;2024-02-16T13:03:36;11.10;;;7.03;;
21507;SDS011;10915;54.352;9.074;2024-02-16T13:06:04;10.70;;;6.23;;
21507;SDS011;10915;54.352;9.074;2024-02-16T13:08:30;10.73;;;6.00;;
21507;SDS011;10915;54.352;9.074;2024-02-16T13:10:56;13.77;;;6.40;;
21507;SDS011;10915;54.352;9.074;2024-02-16T13:13:22;10.60;;;5.97;;
21507;SDS011;10915;54.352;9.074;2024-02-16T13:15:49;12.17;;;6.53;;
21507;SDS011;10915;54.352;9.074;2024-02-16T13:18:14;9.87;;;6.00;;
21507;SDS011;10915;54.352;9.074;2024-02-16T13:20:40;11.37;;;6.23;;
21507;SDS011;10915;54.352;9.074;2024-02-16T13:23:06;11.43;;;6.33;;
21507;SDS011;10915;54.352;9.074;2024-02-16T13:25:32;8.97;;;5.97;;
21507;SDS011;10915;54.352;9.074;2024-02-16T13:27:57;10.17;;;6.63;;
21507;SDS011;10915;54.352;9.074;2024-02-16T13:30:24;11.50;;;7.10;;
21507;SDS011;10915;54.352;9.074;2024-02-16T13:32:52;11.27;;;7.60;;
21507;SDS011;10915;54.352;9.074;2024-02-16T13:35:17;12.57;;;8.10;;
21507;SDS011;10915;54.352;9.074;2024-02-16T13:37:43;14.53;;;8.73;;
21507;SDS011;10915;54.352;9.074;2024-02-16T13:40:09;15.57;;;9.67;;
21507;SDS011;10915;54.352;9.074;2024-02-16T13:42:38;15.43;;;9.03;;
21507;SDS011;10915;54.352;9.074;2024-02-16T13:45:05;17.50;;;11.00;;
21507;SDS011;10915;54.352;9.074;2024-02-16T13:47:31;16.43;;;9.97;;
21507;SDS011;10915;54.352;9.074;2024-02-16T13:49:56;12.90;;;9.00;;
21507;SDS011;10915;54.352;9.074;2024-02-16T13:52:23;14.30;;;9.43;;
21507;SDS011;10915;54.352;9.074;2024-02-16T13:54:49;14.93;;;8.77;;
21507;SDS011;10915;54.352;9.074;2024-02-16T13:57:15;12.43;;;9.27;;
21507;SDS011;10915;54.352;9.074;2024-02-16T13:59:41;16.37;;;10.17;;
21507;SDS011;10915;54.352;9.074;2024-02-16T14:02:07;15.03;;;9.53;;
21507;SDS011;10915;54.352;9.074;2024-02-16T14:04:34;14.80;;;10.07;;
21507;SDS011;10915;54.352;9.074;2024-02-16T14:07:00;14.13;;;9.40;;
21507;SDS011;10915;54.352;9.074;2024-02-16T14:09:25;14.40;;;10.03;;
21507;SDS011;10915;54.352;9.074;2024-02-16T14:11:51;14.27;;;10.73;;
21507;SDS011;10915;54.352;9.074;2024-02-16T14:14:20;13.70;;;9.33;;
21507;SDS011;10915;54.352;9.074;2024-02-16T14:16:46;15.43;;;9.97;;
21507;SDS011;10915;54.352;9.074;2024-02-16T14:19:12;13.30;;;9.60;;
21507;SDS011;10915;54.352;9.074;2024-02-16T14:21:38;14.30;;;9.17;;
21507;SDS011;10915;54.352;9.074;2024-02-16T14:24:04;14.73;;;8.97;;
21507;SDS011;10915;54.352;9.074;2024-02-16T14:26:30;14.73;;;8.03;;
21507;SDS011;10915;54.352;9.074;2024-02-16T14:28:55;13.87;;;8.20;;
21507;SDS011;10915;54.352;9.074;2024-02-16T14:31:21;12.30;;;8.30;;
21507;SDS011;10915;54.352;9.074;2024-02-16T14:33:47;12.40;;;7.57;;
21507;SDS011;10915;54.352;9.074;2024-02-16T14:36:13;13.73;;;7.90;;
21507;SDS011;10915;54.352;9.074;2024-02-16T14:38:39;10.13;;;7.17;;